createdAt,value
2023-05-19T00:02:06.015Z,3.60
2023-05-19T00:04:33.554Z,3.88
2023-05-19T00:07:03.165Z,4.00
2023-05-19T00:09:29.942Z,3.60
2023-05-19T00:11:56.817Z,3.70
2023-05-19T00:14:23.615Z,3.72
2023-05-19T00:16:50.403Z,3.55
2023-05-19T00:19:17.105Z,3.72
2023-05-19T00:21:43.645Z,4.07
2023-05-19T00:24:10.136Z,3.90
2023-05-19T00:26:37.098Z,4.25
2023-05-19T00:29:03.594Z,4.38
2023-05-19T00:31:31.590Z,3.63
2023-05-19T00:33:58.121Z,3.75
2023-05-19T00:36:24.967Z,3.50
2023-05-19T00:38:51.926Z,3.75
2023-05-19T00:41:18.459Z,4.00
2023-05-19T00:43:45.023Z,4.13
2023-05-19T00:46:11.524Z,4.60
2023-05-19T00:48:37.983Z,4.47
2023-05-19T00:51:06.383Z,4.20
2023-05-19T00:53:33.803Z,3.92
2023-05-19T00:56:01.105Z,3.50
2023-05-19T00:58:30.603Z,3.80
2023-05-19T01:01:03.208Z,4.40
2023-05-19T01:03:31.592Z,4.00
2023-05-19T01:06:01.549Z,4.30
2023-05-19T01:10:54.817Z,3.78
2023-05-19T01:13:21.443Z,3.80
2023-05-19T01:16:19.324Z,3.78
2023-05-19T01:19:04.143Z,3.63
2023-05-19T01:21:36.282Z,3.50
2023-05-19T01:24:24.514Z,4.75
2023-05-19T01:27:17.305Z,3.60
2023-05-19T01:29:55.931Z,3.92
2023-05-19T01:32:23.832Z,4.10
2023-05-19T01:34:51.170Z,4.40
2023-05-19T01:37:17.982Z,3.90
2023-05-19T01:39:44.919Z,4.88
2023-05-19T01:42:12.068Z,4.32
2023-05-19T01:44:38.866Z,4.20
2023-05-19T01:47:05.674Z,4.35
2023-05-19T01:49:32.189Z,4.03
2023-05-19T01:51:58.657Z,4.30
2023-05-19T01:54:25.329Z,3.95
2023-05-19T01:56:57.772Z,4.18
2023-05-19T01:59:41.022Z,4.78
2023-05-19T02:02:32.199Z,3.95
2023-05-19T02:05:03.198Z,5.13
2023-05-19T02:07:42.902Z,4.35
2023-05-19T02:10:19.677Z,3.90
2023-05-19T02:12:46.389Z,4.22
2023-05-19T02:15:24.775Z,4.45
2023-05-19T02:17:54.378Z,4.68
2023-05-19T02:20:22.246Z,4.78
2023-05-19T02:22:49.126Z,4.53
2023-05-19T02:25:15.615Z,4.85
2023-05-19T02:27:42.521Z,4.30
2023-05-19T02:30:09.700Z,4.43
2023-05-19T02:32:36.567Z,4.65
2023-05-19T02:35:04.053Z,4.07
2023-05-19T02:37:31.155Z,4.57
2023-05-19T02:39:57.624Z,4.60
2023-05-19T02:42:24.116Z,4.80
2023-05-19T02:44:50.647Z,4.60
2023-05-19T02:47:17.069Z,4.70
2023-05-19T02:49:44.096Z,4.65
2023-05-19T02:52:12.008Z,4.80
2023-05-19T02:54:38.574Z,4.88
2023-05-19T02:57:05.405Z,5.10
2023-05-19T02:59:32.184Z,4.80
2023-05-19T03:02:02.252Z,5.20
2023-05-19T03:04:29.781Z,4.28
2023-05-19T03:06:57.248Z,4.57
2023-05-19T03:09:23.652Z,4.88
2023-05-19T03:11:50.135Z,4.97
2023-05-19T03:14:16.581Z,4.65
2023-05-19T03:16:43.159Z,4.40
2023-05-19T03:19:10.368Z,5.00
2023-05-19T03:21:36.845Z,5.63
2023-05-19T03:24:03.508Z,5.40
2023-05-19T03:26:29.943Z,4.82
2023-05-19T03:28:56.346Z,5.05
2023-05-19T03:31:22.817Z,4.90
2023-05-19T03:33:49.279Z,4.72
2023-05-19T03:36:15.836Z,5.22
2023-05-19T03:38:42.256Z,5.00
2023-05-19T03:41:08.684Z,5.10
2023-05-19T03:43:35.302Z,4.97
2023-05-19T03:46:02.158Z,5.32
2023-05-19T03:48:28.769Z,5.45
2023-05-19T03:50:55.632Z,4.93
2023-05-19T03:53:22.196Z,5.53
2023-05-19T08:26:19.977Z,3.83
2023-05-19T12:35:37.512Z,3.72
2023-05-19T13:15:01.693Z,3.50
2023-05-19T13:17:28.187Z,2.92
2023-05-19T13:19:54.701Z,3.13
2023-05-19T13:22:21.311Z,3.35
2023-05-19T13:24:48.225Z,3.10
2023-05-19T13:27:14.796Z,3.15
2023-05-19T13:29:41.259Z,3.53
2023-05-19T13:32:08.523Z,3.50
2023-05-19T13:34:35.035Z,3.25
2023-05-19T13:37:01.541Z,3.45
2023-05-19T13:39:28.114Z,2.92
2023-05-19T13:41:54.636Z,3.28
2023-05-19T13:44:21.128Z,3.00
2023-05-19T13:46:49.822Z,2.83
2023-05-19T13:49:17.165Z,3.15
2023-05-19T13:51:44.127Z,2.92
2023-05-19T13:54:11.351Z,2.90
2023-05-19T13:56:38.002Z,3.13
2023-05-19T13:59:04.801Z,2.97
2023-05-19T14:01:31.427Z,3.03
2023-05-19T14:03:58.104Z,3.08
2023-05-19T14:06:24.838Z,3.30
2023-05-19T14:08:51.356Z,3.10
2023-05-19T14:11:19.701Z,3.17
2023-05-19T14:13:52.544Z,2.72
2023-05-19T14:16:20.442Z,3.28
2023-05-19T14:18:47.092Z,3.17
2023-05-19T14:21:13.878Z,3.20
2023-05-19T14:23:40.435Z,3.00
2023-05-19T14:26:06.945Z,3.17
2023-05-19T14:28:33.654Z,3.13
2023-05-19T14:31:00.257Z,2.60
2023-05-19T14:33:26.897Z,2.92
2023-05-19T14:35:53.502Z,3.00
2023-05-19T14:38:19.951Z,3.38
2023-05-19T14:40:48.350Z,2.70
2023-05-19T14:43:14.890Z,2.78
2023-05-19T14:45:44.587Z,2.72
2023-05-19T14:48:11.995Z,2.75
2023-05-19T14:50:39.159Z,2.70
2023-05-19T14:53:05.771Z,2.78
2023-05-19T14:55:32.284Z,3.42
2023-05-19T14:57:58.871Z,2.83
2023-05-19T15:00:28.241Z,2.83
2023-05-19T15:02:54.805Z,2.95
2023-05-19T15:05:22.919Z,2.55
2023-05-19T15:07:49.484Z,2.65
2023-05-19T15:10:16.657Z,2.42
2023-05-19T15:12:43.208Z,2.53
2023-05-19T15:15:10.080Z,2.65
2023-05-19T15:17:36.578Z,3.10
2023-05-19T15:20:03.172Z,2.88
2023-05-19T15:22:29.681Z,2.53
2023-05-19T15:24:56.148Z,3.58
2023-05-19T15:27:22.882Z,2.55
2023-05-19T15:29:49.797Z,2.78
2023-05-19T15:32:16.361Z,2.63
2023-05-19T15:34:42.916Z,3.00
2023-05-19T15:37:09.366Z,2.92
2023-05-19T15:39:36.047Z,2.80
2023-05-19T15:42:02.529Z,2.42
2023-05-19T15:44:29.960Z,2.53
2023-05-19T15:46:56.467Z,2.85
2023-05-19T15:49:24.991Z,3.33
2023-05-19T15:51:51.549Z,2.45
2023-05-19T15:54:18.230Z,2.80
2023-05-19T15:56:44.726Z,3.03
2023-05-19T15:59:11.160Z,2.92
2023-05-19T16:01:37.706Z,2.58
2023-05-19T16:04:04.613Z,2.75
2023-05-19T16:06:31.186Z,2.60
2023-05-19T16:08:57.782Z,2.63
2023-05-19T16:11:24.233Z,2.45
2023-05-19T16:13:50.745Z,2.40
2023-05-19T16:16:17.279Z,2.58
2023-05-19T16:18:44.209Z,2.97
2023-05-19T16:21:10.757Z,2.67
2023-05-19T16:23:37.240Z,3.80
2023-05-19T16:26:03.738Z,2.67
2023-05-19T16:28:30.198Z,2.92
2023-05-19T16:30:58.643Z,2.50
2023-05-19T16:33:26.287Z,3.28
2023-05-19T16:35:56.253Z,2.80
2023-05-19T16:38:22.762Z,2.80
2023-05-19T16:40:49.194Z,2.90
2023-05-19T16:43:15.727Z,2.67
2023-05-19T16:45:42.320Z,2.75
2023-05-19T16:48:08.921Z,2.92
2023-05-19T16:50:35.920Z,2.60
2023-05-19T16:53:02.668Z,2.90
2023-05-19T16:55:29.136Z,3.33
2023-05-19T16:57:55.681Z,2.97
2023-05-19T17:00:22.292Z,3.30
2023-05-19T17:02:49.034Z,3.08
2023-05-19T17:05:15.630Z,2.97
2023-05-19T17:07:42.155Z,3.10
2023-05-19T17:10:09.213Z,2.97
2023-05-19T17:12:36.432Z,3.80
2023-05-19T17:15:03.027Z,2.83
2023-05-19T17:17:29.527Z,2.95
2023-05-19T17:19:56.590Z,3.92
2023-05-19T17:22:23.031Z,4.65
2023-05-19T17:24:49.546Z,5.88
2023-05-19T17:27:16.091Z,2.65
2023-05-19T17:29:42.598Z,3.17
2023-05-19T17:32:09.240Z,2.78
2023-05-19T17:34:35.862Z,3.08
2023-05-19T17:37:02.413Z,2.67
2023-05-19T17:39:28.874Z,2.65
2023-05-19T17:41:55.430Z,3.00
2023-05-19T17:44:21.942Z,2.83
2023-05-19T17:46:48.505Z,3.22
2023-05-19T17:49:15.354Z,2.53
2023-05-19T17:51:42.082Z,2.53
2023-05-19T17:54:08.843Z,2.42
2023-05-19T17:56:40.816Z,3.10
2023-05-19T17:59:07.452Z,3.30
2023-05-19T18:01:34.254Z,3.15
2023-05-19T18:04:01.532Z,2.92
2023-05-19T18:06:28.718Z,2.55
2023-05-19T18:08:58.170Z,2.50
2023-05-19T18:13:51.143Z,2.58
2023-05-19T18:16:17.629Z,2.13
2023-05-19T18:18:46.895Z,2.60
2023-05-19T18:21:17.606Z,3.15
2023-05-19T18:23:44.766Z,2.72
2023-05-19T18:26:14.727Z,3.28
2023-05-19T18:28:41.966Z,2.63
2023-05-19T18:31:09.320Z,2.80
2023-05-19T18:33:35.948Z,2.65
2023-05-19T18:36:02.519Z,2.90
2023-05-19T18:38:28.979Z,2.50
2023-05-19T18:40:56.706Z,2.42
2023-05-19T18:43:23.241Z,2.63
2023-05-19T18:45:49.786Z,2.40
2023-05-19T18:48:16.481Z,2.83
2023-05-19T18:50:44.546Z,2.60
2023-05-19T18:53:11.796Z,2.80
2023-05-19T18:55:38.617Z,2.33
2023-05-19T18:58:06.179Z,2.75
2023-05-19T19:00:33.245Z,3.25
2023-05-19T19:03:00.111Z,3.03
2023-05-19T19:05:26.679Z,3.03
2023-05-19T19:07:53.304Z,2.92
2023-05-19T19:10:19.886Z,2.40
2023-05-19T19:12:46.545Z,3.47
2023-05-19T19:15:13.100Z,2.88
2023-05-19T19:17:42.460Z,2.95
2023-05-19T19:20:09.403Z,3.22
2023-05-19T19:22:36.305Z,2.88
2023-05-19T19:25:03.170Z,2.63
2023-05-19T19:27:31.264Z,2.63
2023-05-19T19:29:58.592Z,3.33
2023-05-19T19:32:25.363Z,3.38
2023-05-19T19:34:53.279Z,3.17
2023-05-19T19:37:19.867Z,3.05
2023-05-19T19:39:46.696Z,3.03
2023-05-19T19:42:13.279Z,2.65
2023-05-19T19:44:39.853Z,3.67
2023-05-19T19:47:06.469Z,3.30
2023-05-19T19:49:33.457Z,4.20
2023-05-19T19:52:00.061Z,4.15
2023-05-19T19:54:26.673Z,4.50
2023-05-19T19:56:53.138Z,4.30
2023-05-19T19:59:19.796Z,4.45
2023-05-19T20:01:46.462Z,4.63
2023-05-19T20:04:13.169Z,4.45
2023-05-19T20:06:39.856Z,4.95
2023-05-19T20:09:06.948Z,4.53
2023-05-19T20:11:33.505Z,4.55
2023-05-19T20:14:00.023Z,4.40
2023-05-19T20:16:26.844Z,4.55
2023-05-19T20:18:53.469Z,5.18
2023-05-19T20:21:20.102Z,4.78
2023-05-19T20:23:46.600Z,4.97
2023-05-19T20:26:13.722Z,4.55
2023-05-19T20:28:40.625Z,5.00
2023-05-19T20:31:07.314Z,4.45
2023-05-19T20:33:33.947Z,4.32
2023-05-19T20:36:00.450Z,4.07
2023-05-19T20:38:27.306Z,4.75
2023-05-19T20:40:54.399Z,4.78
2023-05-19T20:43:21.187Z,4.53
2023-05-19T20:45:47.778Z,4.63
2023-05-19T20:48:15.920Z,4.43
2023-05-19T20:50:42.731Z,4.60
2023-05-19T20:53:09.211Z,4.57
2023-05-19T20:55:38.203Z,4.28
2023-05-19T20:58:04.813Z,4.35
2023-05-19T21:00:31.357Z,4.60
2023-05-19T21:02:58.101Z,4.35
2023-05-19T21:05:24.907Z,4.68
2023-05-19T21:07:51.410Z,4.50
2023-05-19T21:10:17.957Z,4.72
2023-05-19T21:12:44.484Z,4.90
2023-05-19T21:15:11.402Z,4.50
2023-05-19T21:17:37.943Z,4.60
2023-05-19T21:20:05.018Z,3.85
2023-05-19T21:22:31.564Z,3.65
2023-05-19T21:24:58.216Z,4.22
2023-05-19T21:27:24.735Z,3.85
2023-05-19T21:29:53.051Z,3.97
2023-05-19T21:32:20.341Z,3.92
2023-05-19T21:34:47.005Z,4.63
2023-05-19T21:37:13.512Z,4.20
2023-05-19T21:39:40.020Z,4.72
2023-05-19T21:42:06.490Z,3.88
2023-05-19T21:44:32.977Z,4.03
2023-05-19T21:46:59.581Z,4.00
2023-05-19T21:49:26.139Z,3.65
2023-05-19T21:51:52.589Z,4.28
2023-05-19T21:54:19.028Z,3.83
2023-05-19T21:56:45.541Z,4.07
2023-05-19T21:59:12.220Z,4.00
2023-05-19T22:01:38.949Z,4.35
2023-05-19T22:06:31.955Z,3.97
2023-05-19T22:09:01.119Z,3.90
2023-05-19T22:11:27.670Z,3.63
2023-05-19T22:13:57.072Z,4.07
2023-05-19T22:16:23.632Z,3.92
2023-05-19T22:18:50.227Z,3.92
2023-05-19T22:21:16.909Z,4.03
2023-05-19T22:23:43.892Z,3.67
2023-05-19T22:26:10.850Z,3.83
2023-05-19T22:28:37.350Z,4.40
2023-05-19T22:31:04.079Z,3.67
2023-05-19T22:33:30.909Z,3.72
2023-05-19T22:35:57.469Z,3.85
2023-05-19T22:38:23.997Z,4.38
2023-05-19T22:40:50.651Z,4.07
2023-05-19T22:43:17.093Z,3.95
2023-05-19T22:45:43.615Z,3.47
2023-05-19T22:48:10.089Z,4.15
2023-05-19T22:50:36.745Z,3.70
2023-05-19T22:53:03.351Z,4.05
2023-05-19T22:55:29.835Z,4.00
2023-05-19T22:57:56.368Z,4.00
2023-05-19T23:00:22.900Z,3.58
2023-05-19T23:02:49.468Z,4.20
2023-05-19T23:05:16.294Z,4.07
2023-05-19T23:07:42.913Z,4.03
2023-05-19T23:10:09.614Z,4.03
2023-05-19T23:12:36.170Z,4.03
2023-05-19T23:15:03.013Z,4.30
2023-05-19T23:17:29.633Z,3.60
2023-05-19T23:19:56.153Z,3.80
2023-05-19T23:22:22.694Z,4.43
2023-05-19T23:24:49.321Z,3.78
2023-05-19T23:27:15.795Z,4.03
2023-05-19T23:29:42.292Z,4.38
2023-05-19T23:32:08.796Z,4.05
2023-05-19T23:34:35.413Z,4.20
2023-05-19T23:37:01.913Z,4.95
2023-05-19T23:39:28.448Z,4.10
2023-05-19T23:41:54.865Z,4.70
2023-05-19T23:44:21.309Z,4.38
2023-05-19T23:46:47.836Z,3.85
2023-05-19T23:49:14.633Z,4.82
2023-05-19T23:51:41.347Z,4.00
2023-05-19T23:54:07.821Z,4.75
2023-05-19T23:56:34.383Z,5.05
2023-05-19T23:59:00.996Z,4.30
